Time;durP1;ratioP1;P1;durP2;ratioP2;P2;SDS_P1;SDS_P2;PMS_P1;PMS_P2;Temp;Humidity;BMP_temperature;BMP_pressure;BME280_temperature;BME280_humidity;BME280_pressure;Samples;Min_cycle;Max_cycle;Signal;HPM_P1;HPM_P2
2021/08/27 00:01:30;;;;;;;6.53;1.27;;;;;;;;;;5072812;28;20021;-67
2021/08/27 00:03:56;;;;;;;9.40;1.00;;;;;;;;;;5072527;28;20036;-65
2021/08/27 00:06:22;;;;;;;14.07;1.00;;;;;;;;;;5072164;28;20025;-67
2021/08/27 00:08:48;;;;;;;7.03;1.48;;;;;;;;;;5072014;28;20024;-65
2021/08/27 00:11:14;;;;;;;9.48;0.90;;;;;;;;;;5071123;28;20032;-66
2021/08/27 00:13:41;;;;;;;8.43;1.17;;;;;;;;;;5072036;28;20056;-66
2021/08/27 00:16:07;;;;;;;6.28;1.15;;;;;;;;;;5071933;28;20046;-66
2021/08/27 00:18:33;;;;;;;14.40;1.30;;;;;;;;;;5082505;28;20040;-65
2021/08/27 00:20:59;;;;;;;9.40;0.90;;;;;;;;;;5092299;28;20085;-66
2021/08/27 00:23:25;;;;;;;8.55;1.20;;;;;;;;;;5073988;28;20036;-67
2021/08/27 00:25:51;;;;;;;10.32;1.00;;;;;;;;;;5092194;28;20034;-67
2021/08/27 00:28:17;;;;;;;4.28;0.98;;;;;;;;;;5092365;28;20024;-66
2021/08/27 00:30:43;;;;;;;6.72;0.88;;;;;;;;;;5092327;28;20538;-66
2021/08/27 00:33:09;;;;;;;5.90;0.90;;;;;;;;;;5074237;28;20035;-66
2021/08/27 00:35:35;;;;;;;19.40;1.17;;;;;;;;;;5092532;28;20059;-67
2021/08/27 00:38:01;;;;;;;6.60;0.98;;;;;;;;;;5076892;28;20069;-67
2021/08/27 00:40:27;;;;;;;9.63;1.00;;;;;;;;;;5071149;28;20036;-66
2021/08/27 00:42:53;;;;;;;10.10;1.20;;;;;;;;;;5071740;28;20169;-67
2021/08/27 00:45:19;;;;;;;19.35;1.20;;;;;;;;;;5071613;28;20037;-64
2021/08/27 00:47:45;;;;;;;6.25;0.90;;;;;;;;;;5071561;28;20345;-66
2021/08/27 00:50:12;;;;;;;8.27;1.00;;;;;;;;;;5071526;28;20027;-66
2021/08/27 00:52:38;;;;;;;4.68;1.00;;;;;;;;;;5071439;28;20020;-66
2021/08/27 00:55:10;;;;;;;5.45;1.42;;;;;;;;;;5071527;28;20013;-63
2021/08/27 00:57:37;;;;;;;6.03;0.80;;;;;;;;;;5071566;28;20029;-66
2021/08/27 01:00:04;;;;;;;9.27;1.25;;;;;;;;;;5073048;28;20021;-66
2021/08/27 01:02:30;;;;;;;14.23;0.80;;;;;;;;;;5074851;28;20029;-65
2021/08/27 01:04:57;;;;;;;10.82;1.23;;;;;;;;;;5056893;28;20040;-67
2021/08/27 01:07:26;;;;;;;15.73;1.40;;;;;;;;;;5074994;28;20016;-66
2021/08/27 01:10:07;;;;;;;12.00;1.02;;;;;;;;;;5075126;28;20372;-66
2021/08/27 01:12:59;;;;;;;5.22;1.30;;;;;;;;;;5085132;28;20024;-66
2021/08/27 01:15:31;;;;;;;18.50;1.20;;;;;;;;;;5077066;28;20375;-67
2021/08/27 01:17:57;;;;;;;;;;;;;;;;;;5095196;28;20048;-66
2021/08/27 01:20:42;;;;;;;14.30;1.38;;;;;;;;;;5095062;28;19908;-67
2021/08/27 01:23:26;;;;;;;16.55;1.45;;;;;;;;;;5095082;28;20070;-68
2021/08/27 01:25:54;;;;;;;8.90;1.10;;;;;;;;;;5095241;28;20024;-67
2021/08/27 01:28:21;;;;;;;14.20;1.35;;;;;;;;;;5080747;28;20036;-67
2021/08/27 01:30:58;;;;;;;7.03;1.10;;;;;;;;;;5074602;28;20095;-66
2021/08/27 01:33:24;;;;;;;11.80;1.20;;;;;;;;;;5056084;28;20039;-65
2021/08/27 01:36:04;;;;;;;19.30;1.42;;;;;;;;;;5074954;28;20457;-67
2021/08/27 01:38:34;;;;;;;9.35;1.40;;;;;;;;;;5074726;28;20032;-65
2021/08/27 01:41:01;;;;;;;4.70;1.00;;;;;;;;;;5056461;28;20424;-66
2021/08/27 01:43:29;;;;;;;15.50;1.20;;;;;;;;;;5073917;28;20429;-67
2021/08/27 01:45:58;;;;;;;9.85;1.35;;;;;;;;;;5074439;28;20031;-63
2021/08/27 01:48:25;;;;;;;6.28;1.33;;;;;;;;;;5073845;28;20082;-67
2021/08/27 01:50:54;;;;;;;7.18;0.90;;;;;;;;;;5073918;28;20452;-67
2021/08/27 01:53:20;;;;;;;5.00;1.17;;;;;;;;;;5074010;28;20020;-66
2021/08/27 01:55:46;;;;;;;10.15;1.23;;;;;;;;;;5074157;28;20060;-67
2021/08/27 01:58:12;;;;;;;5.65;0.95;;;;;;;;;;5073944;28;20052;-67
2021/08/27 02:00:38;;;;;;;3.53;1.17;;;;;;;;;;5074190;28;20780;-64
2021/08/27 02:03:05;;;;;;;3.88;1.30;;;;;;;;;;5073695;28;20078;-67
2021/08/27 02:05:31;;;;;;;11.00;1.50;;;;;;;;;;5073825;28;20491;-67
2021/08/27 02:07:58;;;;;;;4.10;1.00;;;;;;;;;;5073552;28;20436;-66
2021/08/27 02:10:24;;;;;;;5.20;1.02;;;;;;;;;;5073974;28;20028;-66
2021/08/27 02:12:50;;;;;;;7.50;1.25;;;;;;;;;;5072916;28;20021;-66
2021/08/27 02:15:16;;;;;;;4.75;1.13;;;;;;;;;;5073906;28;20043;-66
2021/08/27 02:17:42;;;;;;;4.68;1.20;;;;;;;;;;5089512;28;20051;-67
2021/08/27 02:20:09;;;;;;;3.88;0.90;;;;;;;;;;5093853;28;20036;-66
2021/08/27 02:22:35;;;;;;;3.65;0.80;;;;;;;;;;5093840;28;20369;-66
2021/08/27 02:25:11;;;;;;;2.97;1.10;;;;;;;;;;5093589;28;20463;-66
2021/08/27 02:27:39;;;;;;;2.47;0.93;;;;;;;;;;5093785;28;20031;-65
2021/08/27 02:30:07;;;;;;;7.43;1.10;;;;;;;;;;5093999;28;20131;-68
2021/08/27 02:32:33;;;;;;;6.45;1.00;;;;;;;;;;5093774;28;20028;-67
2021/08/27 02:35:03;;;;;;;3.58;1.00;;;;;;;;;;5093615;28;20073;-67
2021/08/27 02:37:32;;;;;;;2.67;0.95;;;;;;;;;;5082688;28;20059;-68
2021/08/27 02:39:59;;;;;;;2.63;0.88;;;;;;;;;;5073598;28;20029;-66
2021/08/27 02:42:27;;;;;;;10.70;1.10;;;;;;;;;;5073412;28;20053;-66
2021/08/27 02:44:54;;;;;;;4.88;1.02;;;;;;;;;;5072833;28;20028;-67
2021/08/27 02:47:20;;;;;;;4.03;1.08;;;;;;;;;;5085782;28;20054;-68
2021/08/27 02:49:46;;;;;;;8.07;1.02;;;;;;;;;;5075231;28;20036;-67
2021/08/27 02:52:21;;;;;;;5.00;1.33;;;;;;;;;;5075323;28;20016;-68
2021/08/27 02:54:50;;;;;;;1.80;0.80;;;;;;;;;;5093346;28;20517;-67
2021/08/27 02:57:17;;;;;;;4.35;1.17;;;;;;;;;;5093333;28;20028;-67
2021/08/27 02:59:44;;;;;;;6.97;1.00;;;;;;;;;;5093095;28;20471;-65
2021/08/27 03:02:15;;;;;;;11.43;1.23;;;;;;;;;;5093162;28;20497;-64
2021/08/27 03:04:47;;;;;;;7.20;1.40;;;;;;;;;;5093237;28;20028;-67
2021/08/27 03:07:14;;;;;;;7.38;1.05;;;;;;;;;;5093034;28;20035;-67
2021/08/27 03:09:48;;;;;;;7.60;1.13;;;;;;;;;;5092854;28;20051;-67
2021/08/27 03:12:17;;;;;;;4.68;1.17;;;;;;;;;;5092741;28;20020;-66
2021/08/27 03:14:52;;;;;;;11.10;1.30;;;;;;;;;;5092895;28;20024;-67
2021/08/27 03:17:19;;;;;;;5.28;1.05;;;;;;;;;;5092851;28;20631;-67
2021/08/27 03:19:57;;;;;;;5.38;1.10;;;;;;;;;;5073001;28;20438;-67
2021/08/27 03:22:27;;;;;;;3.92;1.13;;;;;;;;;;5074474;28;20456;-67
2021/08/27 03:25:13;;;;;;;5.75;1.48;;;;;;;;;;5092026;28;20052;-67
2021/08/27 03:27:46;;;;;;;7.93;1.15;;;;;;;;;;5092655;28;20032;-66
2021/08/27 03:30:16;;;;;;;4.47;1.10;;;;;;;;;;5092729;28;20056;-65
2021/08/27 03:32:50;;;;;;;3.63;1.00;;;;;;;;;;5092517;28;20016;-68
2021/08/27 03:35:17;;;;;;;5.88;0.98;;;;;;;;;;5092771;28;20110;-68
2021/08/27 03:37:44;;;;;;;7.07;1.27;;;;;;;;;;5071262;28;20102;-67
2021/08/27 03:40:11;;;;;;;5.25;1.17;;;;;;;;;;5092733;28;20020;-66
2021/08/27 03:42:38;;;;;;;10.57;1.35;;;;;;;;;;5074332;28;20035;-64
2021/08/27 03:45:05;;;;;;;5.25;1.20;;;;;;;;;;5092649;28;20499;-67
2021/08/27 03:47:32;;;;;;;2.53;1.10;;;;;;;;;;5093052;28;20058;-67
2021/08/27 03:49:58;;;;;;;7.95;1.15;;;;;;;;;;5078107;28;20033;-66
2021/08/27 03:52:24;;;;;;;5.35;1.20;;;;;;;;;;5072826;28;20074;-68
2021/08/27 03:54:51;;;;;;;3.85;1.10;;;;;;;;;;5084801;28;20057;-68
2021/08/27 03:57:18;;;;;;;4.35;0.98;;;;;;;;;;5092301;28;20159;-67
2021/08/27 03:59:44;;;;;;;2.78;1.05;;;;;;;;;;5074152;28;20020;-66
2021/08/27 04:02:14;;;;;;;5.22;0.88;;;;;;;;;;5092270;28;20052;-66
2021/08/27 04:04:40;;;;;;;3.95;1.20;;;;;;;;;;5091974;28;20036;-67
2021/08/27 04:07:07;;;;;;;4.43;0.90;;;;;;;;;;5092076;28;20114;-66
2021/08/27 04:09:34;;;;;;;4.32;1.45;;;;;;;;;;5092309;28;20056;-66
2021/08/27 04:12:02;;;;;;;5.30;1.00;;;;;;;;;;5092483;28;20031;-66
2021/08/27 04:14:29;;;;;;;3.97;1.08;;;;;;;;;;5092294;28;20035;-68
2021/08/27 04:16:55;;;;;;;7.05;1.30;;;;;;;;;;5092268;28;20020;-67
2021/08/27 04:19:22;;;;;;;2.58;1.08;;;;;;;;;;5073779;28;20052;-67
2021/08/27 04:21:48;;;;;;;4.80;1.38;;;;;;;;;;5092217;28;20032;-68
2021/08/27 04:24:14;;;;;;;5.03;1.30;;;;;;;;;;5092490;28;20079;-67
2021/08/27 04:26:40;;;;;;;5.60;1.58;;;;;;;;;;5072571;28;20021;-67
2021/08/27 04:29:10;;;;;;;3.55;1.05;;;;;;;;;;5071784;28;20073;-67
2021/08/27 04:31:36;;;;;;;9.55;1.42;;;;;;;;;;5071991;28;20095;-67
2021/08/27 04:34:02;;;;;;;14.98;1.58;;;;;;;;;;5071886;28;20027;-67
2021/08/27 04:36:28;;;;;;;9.75;1.40;;;;;;;;;;5075845;28;20033;-67
2021/08/27 04:38:54;;;;;;;8.88;1.20;;;;;;;;;;5076007;28;20518;-68
2021/08/27 04:41:21;;;;;;;7.78;1.38;;;;;;;;;;5076010;28;20380;-66
2021/08/27 04:43:50;;;;;;;12.45;1.55;;;;;;;;;;5075819;28;20035;-67
2021/08/27 04:46:16;;;;;;;13.25;1.58;;;;;;;;;;5075381;28;20021;-64
2021/08/27 04:48:42;;;;;;;4.82;1.30;;;;;;;;;;5075207;28;20024;-66
2021/08/27 04:51:08;;;;;;;7.38;1.17;;;;;;;;;;5074978;28;20063;-67
2021/08/27 04:53:34;;;;;;;7.07;1.70;;;;;;;;;;5074881;28;20043;-66
2021/08/27 04:56:00;;;;;;;9.40;1.40;;;;;;;;;;5090599;28;20059;-67
2021/08/27 04:58:26;;;;;;;4.00;1.23;;;;;;;;;;5095177;28;20028;-64
2021/08/27 05:00:52;;;;;;;3.20;1.15;;;;;;;;;;5094896;28;20094;-67
2021/08/27 05:03:19;;;;;;;11.48;1.35;;;;;;;;;;5094899;28;20036;-66
2021/08/27 05:05:45;;;;;;;17.70;1.80;;;;;;;;;;5095004;28;20107;-68
2021/08/27 05:08:11;;;;;;;4.45;1.52;;;;;;;;;;5094938;28;20024;-67
2021/08/27 05:10:37;;;;;;;10.05;1.20;;;;;;;;;;5095052;28;20321;-66
2021/08/27 05:13:03;;;;;;;6.63;1.70;;;;;;;;;;5094571;28;20048;-66
2021/08/27 05:15:29;;;;;;;5.30;1.17;;;;;;;;;;5094778;28;20055;-67
2021/08/27 05:17:55;;;;;;;15.23;1.30;;;;;;;;;;5094509;28;20446;-66
2021/08/27 05:20:21;;;;;;;2.97;1.08;;;;;;;;;;5076369;28;20036;-67
2021/08/27 05:22:47;;;;;;;6.00;1.20;;;;;;;;;;5094739;28;20069;-66
2021/08/27 05:25:13;;;;;;;2.92;1.25;;;;;;;;;;5089016;28;20492;-66
2021/08/27 05:27:39;;;;;;;2.47;1.20;;;;;;;;;;5074317;28;20025;-63
2021/08/27 05:30:06;;;;;;;4.53;1.50;;;;;;;;;;5074626;28;20039;-66
2021/08/27 05:32:32;;;;;;;3.83;1.27;;;;;;;;;;5074154;28;20025;-65
2021/08/27 05:34:58;;;;;;;5.93;1.30;;;;;;;;;;5073979;28;20024;-67
2021/08/27 05:37:24;;;;;;;11.88;1.35;;;;;;;;;;5074140;28;20020;-67
2021/08/27 05:39:51;;;;;;;6.97;1.60;;;;;;;;;;5074100;28;20059;-66
2021/08/27 05:42:17;;;;;;;5.07;1.25;;;;;;;;;;5074141;28;20016;-66
2021/08/27 05:44:43;;;;;;;10.82;1.92;;;;;;;;;;5084187;28;20036;-71
2021/08/27 05:47:09;;;;;;;3.45;1.23;;;;;;;;;;5055413;28;20031;-69
2021/08/27 05:49:35;;;;;;;11.85;1.42;;;;;;;;;;5074048;28;20028;-70
2021/08/27 05:52:02;;;;;;;5.30;1.00;;;;;;;;;;5074925;28;20024;-71
2021/08/27 05:54:27;;;;;;;3.90;1.33;;;;;;;;;;5074157;28;20036;-72
2021/08/27 05:56:54;;;;;;;6.13;1.17;;;;;;;;;;5074294;28;20036;-72
2021/08/27 05:59:20;;;;;;;11.85;1.35;;;;;;;;;;5067026;28;20059;-72
2021/08/27 06:01:46;;;;;;;46.20;1.70;;;;;;;;;;5074361;28;20181;-73
2021/08/27 06:04:13;;;;;;;4.97;1.20;;;;;;;;;;5073735;28;20543;-73
2021/08/27 06:06:39;;;;;;;3.20;1.05;;;;;;;;;;5073693;28;20032;-75
2021/08/27 06:09:06;;;;;;;4.15;1.48;;;;;;;;;;5074033;28;20426;-69
2021/08/27 06:11:35;;;;;;;6.18;1.40;;;;;;;;;;5073960;28;20021;-73
2021/08/27 06:14:01;;;;;;;4.30;1.30;;;;;;;;;;5073678;28;20100;-69
2021/08/27 06:16:27;;;;;;;18.33;1.50;;;;;;;;;;5074104;28;20059;-72
2021/08/27 06:18:53;;;;;;;18.48;1.67;;;;;;;;;;5043227;28;20098;-76
2021/08/27 06:21:19;;;;;;;12.40;1.45;;;;;;;;;;5054090;28;20029;-71
2021/08/27 06:23:45;;;;;;;10.32;1.20;;;;;;;;;;5053361;28;20434;-71
2021/08/27 06:26:11;;;;;;;6.97;1.35;;;;;;;;;;5053488;28;20032;-64
2021/08/27 06:28:37;;;;;;;7.28;1.23;;;;;;;;;;5053023;28;20017;-65
2021/08/27 06:31:03;;;;;;;6.40;1.13;;;;;;;;;;5053114;28;20082;-63
2021/08/27 06:33:31;;;;;;;17.80;1.42;;;;;;;;;;5052720;28;20413;-64
2021/08/27 06:35:57;;;;;;;13.13;1.42;;;;;;;;;;5053179;28;20040;-64
2021/08/27 06:38:24;;;;;;;3.50;1.00;;;;;;;;;;5056810;28;20025;-63
2021/08/27 06:40:52;;;;;;;12.07;1.27;;;;;;;;;;5052991;28;20029;-63
2021/08/27 06:43:18;;;;;;;9.60;1.40;;;;;;;;;;5053003;28;20033;-67
2021/08/27 06:45:44;;;;;;;15.30;1.90;;;;;;;;;;5052587;28;20545;-62
2021/08/27 06:48:10;;;;;;;5.25;1.40;;;;;;;;;;5052849;28;20384;-65
2021/08/27 06:50:38;;;;;;;10.68;1.38;;;;;;;;;;5052678;28;20445;-63
2021/08/27 06:53:05;;;;;;;11.30;1.40;;;;;;;;;;5052687;28;20082;-63
2021/08/27 06:55:31;;;;;;;11.15;0.90;;;;;;;;;;5052664;28;20463;-62
2021/08/27 06:57:59;;;;;;;5.03;1.63;;;;;;;;;;5052446;28;20530;-62
2021/08/27 07:00:26;;;;;;;9.55;1.20;;;;;;;;;;5051679;28;20027;-62
2021/08/27 07:02:52;;;;;;;8.73;1.27;;;;;;;;;;5034710;28;20025;-63
2021/08/27 07:05:19;;;;;;;13.63;1.20;;;;;;;;;;5052044;28;20040;-63
2021/08/27 07:07:45;;;;;;;5.53;1.20;;;;;;;;;;5052432;28;20067;-63
2021/08/27 07:10:11;;;;;;;11.23;1.30;;;;;;;;;;5054949;28;20163;-64
2021/08/27 07:12:37;;;;;;;14.95;1.40;;;;;;;;;;5051877;28;20025;-62
2021/08/27 07:15:03;;;;;;;10.82;1.40;;;;;;;;;;5033898;28;20032;-62
2021/08/27 07:17:29;;;;;;;11.80;1.25;;;;;;;;;;5052397;28;20039;-62
2021/08/27 07:19:55;;;;;;;9.85;1.17;;;;;;;;;;5072606;28;20380;-62
2021/08/27 07:22:21;;;;;;;12.27;1.63;;;;;;;;;;5072510;28;20024;-63
2021/08/27 07:24:47;;;;;;;6.35;1.10;;;;;;;;;;5071930;28;20383;-62
2021/08/27 07:27:13;;;;;;;5.72;1.00;;;;;;;;;;5072049;28;20029;-62
2021/08/27 07:29:39;;;;;;;8.25;1.10;;;;;;;;;;5051108;28;20028;-62
2021/08/27 07:32:11;;;;;;;8.75;1.20;;;;;;;;;;5071819;28;20031;-61
2021/08/27 07:34:37;;;;;;;5.05;1.05;;;;;;;;;;5071960;28;20445;-63
2021/08/27 07:37:03;;;;;;;6.15;1.08;;;;;;;;;;5071291;28;20066;-65
2021/08/27 07:39:29;;;;;;;4.47;1.30;;;;;;;;;;5053957;28;20044;-63
2021/08/27 07:41:54;;;;;;;6.70;1.20;;;;;;;;;;5072031;28;20032;-65
2021/08/27 07:44:20;;;;;;;4.43;1.10;;;;;;;;;;5070900;28;20115;-64
2021/08/27 07:46:46;;;;;;;5.60;1.10;;;;;;;;;;5053871;28;20074;-63
2021/08/27 07:49:12;;;;;;;6.40;1.35;;;;;;;;;;5072126;28;20428;-63
2021/08/27 07:51:38;;;;;;;15.85;1.27;;;;;;;;;;5072000;28;20109;-63
2021/08/27 07:54:04;;;;;;;10.57;1.38;;;;;;;;;;5072292;28;20032;-63
2021/08/27 07:56:30;;;;;;;7.53;1.15;;;;;;;;;;5072370;28;20085;-63
2021/08/27 07:58:56;;;;;;;14.60;1.30;;;;;;;;;;5071951;28;20028;-63
2021/08/27 08:01:22;;;;;;;18.30;1.40;;;;;;;;;;5071368;28;20029;-62
2021/08/27 08:03:48;;;;;;;26.38;2.35;;;;;;;;;;5072186;28;20360;-63
2021/08/27 08:06:14;;;;;;;6.22;1.30;;;;;;;;;;5072014;28;20024;-63
2021/08/27 08:08:40;;;;;;;9.10;1.50;;;;;;;;;;5072293;28;20059;-63
2021/08/27 08:11:06;;;;;;;13.18;1.35;;;;;;;;;;5075525;28;20016;-63
2021/08/27 08:13:32;;;;;;;11.35;1.58;;;;;;;;;;5076119;28;20025;-63
2021/08/27 08:15:58;;;;;;;9.95;1.60;;;;;;;;;;5076049;28;20021;-63
2021/08/27 08:18:24;;;;;;;13.88;1.77;;;;;;;;;;5083612;28;20418;-63
2021/08/27 08:20:50;;;;;;;6.07;1.30;;;;;;;;;;5083596;28;20035;-63
2021/08/27 08:23:16;;;;;;;4.60;1.30;;;;;;;;;;5075762;28;20027;-63
2021/08/27 08:25:42;;;;;;;5.82;1.38;;;;;;;;;;5058094;28;20119;-63
2021/08/27 08:28:09;;;;;;;16.75;1.70;;;;;;;;;;5074974;28;20036;-63
2021/08/27 08:30:35;;;;;;;5.50;1.38;;;;;;;;;;5076137;28;20024;-65
2021/08/27 08:33:01;;;;;;;4.95;1.50;;;;;;;;;;5075905;28;20096;-64
2021/08/27 08:35:27;;;;;;;6.13;1.30;;;;;;;;;;5075614;28;20025;-63
2021/08/27 08:37:53;;;;;;;8.90;1.60;;;;;;;;;;5075815;28;20448;-63
2021/08/27 08:40:19;;;;;;;8.20;1.67;;;;;;;;;;5075836;28;20025;-63
2021/08/27 08:42:48;;;;;;;10.50;1.48;;;;;;;;;;5075747;28;20031;-63
2021/08/27 08:45:14;;;;;;;8.80;1.52;;;;;;;;;;5075581;28;20460;-63
2021/08/27 08:47:43;;;;;;;8.45;1.90;;;;;;;;;;5057788;28;20042;-63
2021/08/27 08:50:11;;;;;;;3.85;1.40;;;;;;;;;;5075452;28;20107;-64
2021/08/27 08:52:37;;;;;;;6.72;1.52;;;;;;;;;;5057531;28;20384;-63
2021/08/27 08:55:04;;;;;;;5.32;1.48;;;;;;;;;;5075797;28;20124;-63
2021/08/27 08:57:30;;;;;;;7.00;1.45;;;;;;;;;;5075653;28;20083;-63
2021/08/27 08:59:56;;;;;;;6.18;1.70;;;;;;;;;;5076263;28;20439;-63
2021/08/27 09:02:22;;;;;;;8.40;1.33;;;;;;;;;;5095914;28;20035;-63
2021/08/27 09:04:48;;;;;;;8.82;1.85;;;;;;;;;;5095644;28;20040;-63
2021/08/27 09:07:15;;;;;;;5.25;1.50;;;;;;;;;;5095259;28;20043;-63
2021/08/27 09:09:41;;;;;;;6.05;1.38;;;;;;;;;;5095501;28;20031;-63
2021/08/27 09:12:21;;;;;;;8.27;1.50;;;;;;;;;;5095503;28;20690;-63
2021/08/27 09:14:56;;;;;;;8.45;2.00;;;;;;;;;;5095478;28;20024;-63
2021/08/27 09:17:36;;;;;;;7.57;1.67;;;;;;;;;;5075522;28;20024;-64
2021/08/27 09:20:04;;;;;;;6.70;1.70;;;;;;;;;;5095444;28;20107;-63
2021/08/27 09:22:44;;;;;;;8.15;1.60;;;;;;;;;;5076883;28;20046;-63
2021/08/27 09:25:10;;;;;;;6.40;2.05;;;;;;;;;;5095259;28;20040;-63
2021/08/27 09:27:56;;;;;;;11.80;2.10;;;;;;;;;;5095042;28;20025;-62
2021/08/27 09:30:22;;;;;;;11.00;2.20;;;;;;;;;;5094974;28;20051;-63
2021/08/27 09:32:48;;;;;;;24.83;2.53;;;;;;;;;;5094915;28;20062;-64
2021/08/27 09:35:16;;;;;;;12.07;1.85;;;;;;;;;;5095081;28;20023;-63
2021/08/27 09:37:42;;;;;;;24.25;3.63;;;;;;;;;;5082278;28;20086;-63
2021/08/27 09:40:09;;;;;;;32.00;2.45;;;;;;;;;;5074828;28;20024;-63
2021/08/27 09:42:36;;;;;;;16.88;2.72;;;;;;;;;;5074476;28;20028;-64
2021/08/27 09:45:02;;;;;;;17.27;2.58;;;;;;;;;;5073608;28;20063;-63
2021/08/27 09:47:28;;;;;;;13.98;2.53;;;;;;;;;;5074444;28;20024;-63
2021/08/27 09:49:54;;;;;;;11.13;2.33;;;;;;;;;;5074472;28;20039;-63
2021/08/27 09:52:20;;;;;;;12.27;2.33;;;;;;;;;;5056525;28;20119;-62
2021/08/27 09:54:48;;;;;;;10.98;2.55;;;;;;;;;;5074624;28;20024;-63
2021/08/27 09:57:14;;;;;;;10.88;2.00;;;;;;;;;;5073952;28;20052;-65
2021/08/27 09:59:47;;;;;;;13.50;1.85;;;;;;;;;;5074265;28;20507;-63
2021/08/27 10:02:25;;;;;;;10.18;2.10;;;;;;;;;;5056389;28;20100;-63
2021/08/27 10:04:52;;;;;;;12.10;2.00;;;;;;;;;;5074053;28;20067;-63
2021/08/27 10:07:28;;;;;;;14.45;2.75;;;;;;;;;;5073853;28;20043;-64
2021/08/27 10:09:55;;;;;;;20.60;2.60;;;;;;;;;;5074374;28;20025;-63
2021/08/27 10:12:21;;;;;;;11.25;2.15;;;;;;;;;;5073753;28;20032;-63
2021/08/27 10:14:49;;;;;;;14.00;2.65;;;;;;;;;;5073676;28;20020;-63
2021/08/27 10:17:15;;;;;;;11.93;2.13;;;;;;;;;;5074030;28;20752;-66
2021/08/27 10:19:41;;;;;;;14.93;1.95;;;;;;;;;;5054581;28;20550;-63
2021/08/27 10:22:07;;;;;;;11.82;2.13;;;;;;;;;;5053850;28;20035;-64
2021/08/27 10:24:33;;;;;;;14.52;2.70;;;;;;;;;;5053763;28;20048;-63
2021/08/27 10:27:00;;;;;;;10.57;1.77;;;;;;;;;;5052967;28;20023;-63
2021/08/27 10:29:26;;;;;;;17.38;2.80;;;;;;;;;;5053539;28;20083;-63
2021/08/27 10:31:54;;;;;;;7.43;1.90;;;;;;;;;;5053191;28;20032;-63
2021/08/27 10:34:38;;;;;;;8.75;1.85;;;;;;;;;;5052305;28;20078;-66
2021/08/27 10:37:04;;;;;;;6.72;1.85;;;;;;;;;;5052088;28;20029;-65
2021/08/27 10:39:34;;;;;;;12.63;2.08;;;;;;;;;;5053050;28;20519;-63
2021/08/27 10:42:00;;;;;;;11.45;2.45;;;;;;;;;;5053017;28;20108;-66
2021/08/27 10:44:45;;;;;;;8.35;2.20;;;;;;;;;;5053711;28;20499;-63
2021/08/27 10:47:11;;;;;;;9.75;2.30;;;;;;;;;;5035485;28;20353;-66
2021/08/27 10:49:46;;;;;;;11.30;2.20;;;;;;;;;;5051964;28;20491;-66
2021/08/27 10:52:25;;;;;;;9.00;1.77;;;;;;;;;;5053131;28;20021;-64
2021/08/27 10:55:04;;;;;;;12.10;2.15;;;;;;;;;;5053143;28;20028;-66
2021/08/27 10:57:30;;;;;;;10.05;1.85;;;;;;;;;;5053357;28;20079;-64
2021/08/27 11:00:00;;;;;;;15.77;1.80;;;;;;;;;;5053317;28;20072;-63
2021/08/27 11:02:26;;;;;;;17.90;2.10;;;;;;;;;;5031960;28;20064;-69
2021/08/27 11:04:52;;;;;;;16.75;2.60;;;;;;;;;;5033451;28;20084;-69
2021/08/27 11:07:20;;;;;;;14.32;1.92;;;;;;;;;;5033225;28;20025;-67
2021/08/27 11:10:03;;;;;;;10.75;2.00;;;;;;;;;;5034223;28;20017;-67
2021/08/27 11:12:30;;;;;;;9.98;2.00;;;;;;;;;;5034511;28;20467;-67
2021/08/27 11:15:16;;;;;;;13.00;1.90;;;;;;;;;;5033042;28;20030;-67
2021/08/27 11:17:42;;;;;;;13.52;2.15;;;;;;;;;;5044537;28;20051;-68
2021/08/27 11:20:08;;;;;;;18.10;2.28;;;;;;;;;;5093208;28;20016;-67
2021/08/27 11:22:34;;;;;;;13.57;1.98;;;;;;;;;;5093236;28;20387;-67
2021/08/27 11:25:11;;;;;;;20.20;2.28;;;;;;;;;;5093004;28;20047;-68
2021/08/27 11:27:37;;;;;;;17.42;2.08;;;;;;;;;;5093163;28;20020;-65
2021/08/27 11:30:22;;;;;;;17.10;2.55;;;;;;;;;;5093355;28;20020;-66
2021/08/27 11:32:48;;;;;;;45.83;2.97;;;;;;;;;;5081381;28;20099;-67
2021/08/27 11:35:14;;;;;;;20.23;2.67;;;;;;;;;;5072408;28;20056;-66
2021/08/27 11:37:43;;;;;;;22.77;2.55;;;;;;;;;;5054419;28;20059;-68
2021/08/27 11:40:11;;;;;;;12.27;1.90;;;;;;;;;;5054472;28;20127;-68
2021/08/27 11:42:38;;;;;;;16.83;1.83;;;;;;;;;;5072370;28;20028;-66
2021/08/27 11:45:09;;;;;;;13.27;2.38;;;;;;;;;;5071174;28;20043;-68
2021/08/27 11:47:46;;;;;;;8.55;1.60;;;;;;;;;;5072296;28;20019;-66
2021/08/27 11:50:12;;;;;;;9.68;1.88;;;;;;;;;;5077204;28;20028;-68
2021/08/27 11:52:38;;;;;;;18.25;2.72;;;;;;;;;;5054798;28;20135;-68
2021/08/27 11:55:14;;;;;;;9.32;1.83;;;;;;;;;;5072064;28;20043;-69
2021/08/27 11:57:52;;;;;;;17.30;2.60;;;;;;;;;;5069842;28;20020;-69
2021/08/27 12:00:22;;;;;;;11.90;2.53;;;;;;;;;;5051439;28;20027;-69
2021/08/27 12:02:52;;;;;;;21.02;3.20;;;;;;;;;;5072323;28;20090;-64
2021/08/27 12:05:18;;;;;;;14.30;1.90;;;;;;;;;;5073385;28;20116;-69
2021/08/27 12:08:13;;;;;;;12.38;2.40;;;;;;;;;;5072143;28;20016;-64
2021/08/27 12:10:40;;;;;;;16.23;2.20;;;;;;;;;;5055700;28;20064;-63
2021/08/27 12:13:11;;;;;;;15.80;2.33;;;;;;;;;;5054805;28;20063;-63
2021/08/27 12:15:39;;;;;;;11.48;2.15;;;;;;;;;;5072423;28;20020;-64
2021/08/27 12:18:08;;;;;;;13.82;1.92;;;;;;;;;;5066569;28;20055;-67
2021/08/27 12:20:45;;;;;;;14.00;1.70;;;;;;;;;;5052004;28;20104;-63
2021/08/27 12:23:17;;;;;;;11.50;2.03;;;;;;;;;;5052329;28;20044;-63
2021/08/27 12:25:47;;;;;;;10.80;1.95;;;;;;;;;;5051926;28;20025;-63
2021/08/27 12:28:15;;;;;;;11.38;2.17;;;;;;;;;;5056302;28;20375;-66
2021/08/27 12:30:49;;;;;;;10.85;2.38;;;;;;;;;;5052251;28;20037;-63
2021/08/27 12:33:15;;;;;;;18.38;2.30;;;;;;;;;;5051703;28;20384;-64
2021/08/27 12:35:42;;;;;;;10.77;2.08;;;;;;;;;;5052035;28;20025;-63
2021/08/27 12:38:08;;;;;;;7.97;2.00;;;;;;;;;;5033927;28;20083;-64
2021/08/27 12:40:35;;;;;;;17.05;2.58;;;;;;;;;;5051635;28;20444;-63
2021/08/27 12:43:02;;;;;;;14.68;2.33;;;;;;;;;;5051525;28;20052;-63
2021/08/27 12:45:28;;;;;;;13.85;2.42;;;;;;;;;;5051782;28;20063;-64
2021/08/27 12:48:05;;;;;;;10.02;2.00;;;;;;;;;;5051890;28;20074;-65
2021/08/27 12:50:31;;;;;;;17.35;2.13;;;;;;;;;;5034232;28;20358;-64
2021/08/27 12:53:04;;;;;;;18.40;2.45;;;;;;;;;;5050478;28;20028;-63
2021/08/27 12:55:31;;;;;;;16.88;2.15;;;;;;;;;;5051603;28;20120;-65
2021/08/27 12:57:58;;;;;;;11.70;2.20;;;;;;;;;;5055255;28;20029;-65
2021/08/27 13:00:26;;;;;;;19.05;2.05;;;;;;;;;;5055718;28;20032;-64
2021/08/27 13:02:52;;;;;;;18.85;2.25;;;;;;;;;;5055523;28;20412;-63
2021/08/27 13:05:38;;;;;;;12.13;2.10;;;;;;;;;;5037256;28;20796;-63
2021/08/27 13:08:08;;;;;;;8.85;1.60;;;;;;;;;;5055514;28;20021;-63
2021/08/27 13:10:34;;;;;;;11.18;2.25;;;;;;;;;;5055284;28;20032;-65
2021/08/27 13:13:00;;;;;;;11.18;2.10;;;;;;;;;;5055446;28;20075;-63
2021/08/27 13:15:27;;;;;;;9.00;1.85;;;;;;;;;;5055230;28;20032;-63
2021/08/27 13:17:57;;;;;;;7.53;1.80;;;;;;;;;;5058945;28;20045;-69
2021/08/27 13:20:24;;;;;;;14.80;2.25;;;;;;;;;;5055287;28;20449;-64
2021/08/27 13:22:50;;;;;;;8.70;1.95;;;;;;;;;;5055223;28;20040;-63
2021/08/27 13:25:16;;;;;;;9.43;2.05;;;;;;;;;;5054999;28;20041;-63
2021/08/27 13:27:44;;;;;;;9.52;2.00;;;;;;;;;;5072059;28;20023;-64
2021/08/27 13:30:11;;;;;;;15.73;1.90;;;;;;;;;;5074311;28;20035;-63
2021/08/27 13:32:40;;;;;;;23.67;2.40;;;;;;;;;;5071386;28;20070;-65
2021/08/27 13:35:07;;;;;;;10.80;1.50;;;;;;;;;;5072958;28;20021;-65
2021/08/27 13:37:33;;;;;;;10.38;2.05;;;;;;;;;;5055748;28;20024;-64
2021/08/27 13:39:59;;;;;;;13.80;2.28;;;;;;;;;;5073479;28;20321;-67
2021/08/27 13:42:25;;;;;;;11.13;1.70;;;;;;;;;;5073572;28;20028;-66
2021/08/27 13:44:51;;;;;;;11.23;2.10;;;;;;;;;;5073834;28;20036;-64
2021/08/27 13:47:17;;;;;;;10.05;1.88;;;;;;;;;;5074972;28;20341;-64
2021/08/27 13:49:43;;;;;;;8.05;1.77;;;;;;;;;;5074381;28;20058;-63
2021/08/27 13:52:09;;;;;;;9.65;1.88;;;;;;;;;;5073864;28;20036;-66
2021/08/27 13:54:35;;;;;;;10.05;1.88;;;;;;;;;;5074296;28;20082;-65
2021/08/27 13:57:01;;;;;;;9.43;2.00;;;;;;;;;;5074202;28;20032;-64
2021/08/27 13:59:27;;;;;;;9.73;1.70;;;;;;;;;;5071538;28;20111;-68
2021/08/27 14:01:53;;;;;;;12.50;2.15;;;;;;;;;;5074673;28;20368;-63
2021/08/27 14:04:19;;;;;;;10.18;1.85;;;;;;;;;;5074661;28;20025;-64
2021/08/27 14:06:45;;;;;;;11.27;1.65;;;;;;;;;;5056480;28;20060;-73
2021/08/27 14:09:12;;;;;;;8.57;2.10;;;;;;;;;;5074147;28;20185;-74
2021/08/27 14:11:38;;;;;;;8.90;1.77;;;;;;;;;;5075160;28;20055;-74
2021/08/27 14:14:04;;;;;;;14.80;1.90;;;;;;;;;;5074826;28;20372;-73
2021/08/27 14:16:30;;;;;;;12.27;2.10;;;;;;;;;;5074516;28;20032;-73
2021/08/27 14:18:56;;;;;;;13.90;2.00;;;;;;;;;;5074468;28;20044;-66
2021/08/27 14:21:22;;;;;;;10.60;2.10;;;;;;;;;;5074544;28;20086;-73
2021/08/27 14:23:48;;;;;;;13.77;2.03;;;;;;;;;;5073914;28;20032;-73
2021/08/27 14:26:14;;;;;;;15.32;2.35;;;;;;;;;;5056442;28;20028;-71
2021/08/27 14:28:40;;;;;;;15.68;2.58;;;;;;;;;;5074451;28;20025;-73
2021/08/27 14:31:09;;;;;;;13.73;2.08;;;;;;;;;;5056915;28;20025;-74
2021/08/27 14:33:36;;;;;;;13.82;2.05;;;;;;;;;;5074640;28;20444;-70
2021/08/27 14:36:02;;;;;;;12.88;2.20;;;;;;;;;;5073847;28;20033;-65
2021/08/27 14:38:28;;;;;;;10.95;1.90;;;;;;;;;;5073527;28;20024;-63
2021/08/27 14:40:54;;;;;;;11.75;2.50;;;;;;;;;;5072386;28;20074;-62
2021/08/27 14:43:21;;;;;;;12.88;2.55;;;;;;;;;;5055418;28;20025;-63